EDT,Max TemperatureF,Mean TemperatureF,Min TemperatureF,Max Dew PointF,MeanDew PointF,Min DewpointF,Max Humidity, Mean Humidity, Min Humidity, Max Sea Level PressureIn, Mean Sea Level PressureIn, Min Sea Level PressureIn, Max VisibilityMiles, Mean VisibilityMiles, Min VisibilityMiles, Max Wind SpeedMPH, Mean Wind SpeedMPH, Max Gust SpeedMPH,PrecipitationIn, CloudCover, Events, WindDirDegrees
2012-9-1,64,60,55,63,57,54,100,92,77,30.13,30.02,29.85,10,8,0,12,4,,0.00,1,,36
2012-9-2,60,56,51,55,52,48,94,91,82,30.19,30.13,30.10,10,10,2,9,2,,0.13,5,,169
2012-9-3,62,55,51,55,54,50,94,89,77,30.24,30.19,30.15,10,10,5,10,3,16,0.00,5,,185
2012-9-4,62,58,53,61,58,52,100,94,94,30.15,30.06,29.90,10,7,2,14,4,20,0.14,5,,173
2012-9-5,69,64,60,63,61,59,94,87,78,29.87,29.77,29.67,10,9,2,16,6,20,1.36,7,,11
2012-9-6,73,64,55,63,59,54,100,85,61,29.92,29.87,29.84,10,8,0,9,2,,0.00,4,,143
2012-9-7,80,70,60,66,62,57,100,89,45,29.92,29.89,29.84,10,6,0,8,1,16,0.00,4,,224
2012-9-8,64,,64,63,63,63,94,94,94,29.89,29.76,29.60,10,6,0,22,7,30,0.30,7,,171
2012-9-9,69,62,55,57,52,48,88,69,46,29.87,29.80,29.64,10,10,5,9,3,,0.01,3,,342
2012-9-10,62,54,46,50,45,41,93,78,55,30.00,29.91,29.86,10,10,10,18,6,28,0.00,3,,328
2012-9-11,71,56,41,48,42,37,93,64,31,30.24,30.14,30.01,10,10,9,13,4,17,0.00,0,,299
2012-9-12,69,56,42,52,46,39,93,83,46,30.35,30.31,30.25,10,10,7,12,3,,0.00,0,,190
2012-9-13,78,61,44,57,50,43,94,80,44,30.34,30.29,30.23,10,9,0,10,2,,0.00,0,,176
2012-9-14,78,66,53,63,57,52,100,89,54,30.25,30.15,30.04,10,6,0,13,2,,0.00,3,,153
2012-9-15,60,58,53,59,51,39,100,83,52,30.03,29.99,29.96,10,7,0,20,5,26,0.00,3,,316
2012-9-16,62,52,41,39,37,30,87,62,34,30.06,30.01,29.96,10,10,10,16,5,23,0.00,0,,312
2012-9-17,57,46,35,48,40,34,100,88,67,30.10,30.05,30.02,10,10,1,10,2,,0.00,0,,193
2012-9-18,51,51,51,50,49,48,94,89,88,30.05,29.94,29.69,10,7,0,23,6,33,0.46,7,,163
2012-9-19,66,56,44,48,38,32,76,48,32,30.24,29.95,29.66,10,10,5,20,13,34,0.14,3,,316
2012-9-20,62,48,35,45,38,34,93,71,34,30.30,30.24,30.18,10,10,10,10,3,16,0.00,0,,44
2012-9-21,60,48,37,48,43,36,100,83,59,30.19,30.15,30.08,10,10,2,6,1,,0.00,1,,105
2012-9-22,66,57,48,59,53,46,94,87,73,30.08,29.94,29.84,10,8,1,9,3,,0.00,7,,225
2012-9-23,66,54,42,59,47,36,94,68,32,30.06,29.91,29.77,10,10,1,14,5,20,0.00,3,,281
2012-9-24,60,48,37,46,40,36,93,78,39,30.13,30.08,30.04,10,9,0,10,1,20,0.00,4,,1
2012-9-25,68,50,32,48,40,30,100,72,37,30.11,30.09,30.07,10,10,1,17,4,24,0.00,1,,192
2012-9-26,64,55,46,59,53,45,94,86,76,30.09,30.03,29.97,10,10,1,16,6,20,0.00,5,,184
2012-9-27,62,50,37,55,42,36,94,64,39,30.26,30.14,29.97,10,10,0,16,6,24,0.00,2,,347
2012-9-28,51,42,33,48,41,30,94,89,71,30.28,30.22,30.11,10,9,5,8,2,,0.25,5,,71
2012-9-29,53,50,48,52,48,46,100,92,82,30.10,29.96,29.90,10,6,2,17,8,21,0.09,8,,15
2012-9-30,57,54,51,54,52,50,100,95,88,29.93,29.78,29.62,10,7,1,14,7,,0.40,7,,354